Flight Track Log - Related Links

Times and Time Zones

All times are in EDT time to prevent confusion due to time zone crossing. See the UAL4407 flight status page for this flight to view local times or setup timezone preferences in your user account.

Time Position Orientation Groundspeed Altitude Reporting Facility
EDT Latitude Longitude Course Direction KTS MPH feet Rate Location/Type
Fri 08:29:57 AM 40.6500 -74.1833 270° West 181 208 1,700  Level New York TRACON
Fri 08:30:57 AM 40.6333 -74.2500 252° West 252 290 3,200 2,095 Climbing New York TRACON
Fri 08:32:03 AM 40.6667 -74.3333 298° West 267 307 6,100 2,571 Climbing New York TRACON
Fri 08:33:00 AM 40.7579 -74.7074 294° West  Level Estimated
Fri 08:33:03 AM 40.7000 -74.4333 294° West 279 321 8,600  Level New York TRACON
Fri 08:34:00 AM 40.7739 -74.8422 217° Southwest  Level Estimated
Fri 08:34:03 AM 40.7167 -74.5333 282° West 291 335 10,500  Level New York TRACON
Fri 08:34:59 AM 40.7550 -74.6256 299° West 325 374 11,500 1,086 Climbing New York Center
Fri 08:35:00 AM 40.7897 -74.9772 270° West  Level Estimated
Fri 08:35:59 AM 40.7867 -74.7342 291° West 347 399 12,600  Level New York Center
Fri 08:36:59 AM 40.8300 -74.8683 293° West 363 418 13,900 1,300 Climbing New York Center
Fri 08:37:59 AM 40.8692 -74.9997 292° West 376 433 15,200 1,300 Climbing New York Center
Fri 08:38:59 AM 40.9083 -75.1283 292° West 383 441 16,500 1,350 Climbing New York Center
Fri 08:39:59 AM 40.8994 -75.2569 265° West 371 427 17,900 1,250 Climbing New York Center
Fri 08:40:59 AM 40.8711 -75.3922 255° West 381 438 19,000 1,200 Climbing New York Center
Fri 08:41:59 AM 40.8367 -75.5269 251° West 386 444 20,300 1,300 Climbing New York Center
Fri 08:42:59 AM 40.8039 -75.6644 253° West 391 450 21,600 1,300 Climbing New York Center
Fri 08:43:59 AM 40.7733 -75.7994 253° West 391 450 22,900 1,200 Climbing New York Center
Fri 08:44:59 AM 40.7406 -75.9339 252° West 397 457 24,000 1,150 Climbing New York Center
Fri 08:45:59 AM 40.7050 -76.0736 251° West 397 457 25,200 1,200 Climbing New York Center
Fri 08:46:59 AM 40.6717 -76.2133 253° West 397 457 26,400 1,150 Climbing New York Center
Fri 08:47:59 AM 40.6817 -76.3536 275° West 386 444 27,500 1,100 Climbing New York Center
Fri 08:48:59 AM 40.7019 -76.4978 281° West 391 450 28,600 1,000 Climbing New York Center
Fri 08:49:59 AM 40.7242 -76.6419 282° West 396 456 29,500 950 Climbing New York Center
Fri 08:50:59 AM 40.7461 -76.7836 282° West 396 456 30,500 1,000 Climbing New York Center
Fri 08:51:59 AM 40.7656 -76.9333 280° West 401 461 31,500 950 Climbing New York Center
Fri 08:52:59 AM 40.7892 -77.0781 282° West 401 461 32,400 950 Climbing New York Center
Fri 08:53:59 AM 40.8083 -77.2250 280° West 406 467 33,400 1,000 Climbing New York Center
Fri 08:54:59 AM 40.8331 -77.3811 282° West 406 467 34,400 793 Climbing New York Center
Fri 08:56:53 AM 40.8672 -77.6342 280° West 400 460 35,700 545 Climbing Cleveland Center
Fri 08:57:55 AM 40.8906 -77.7997 281° West 405 466 36,000 145 Climbing Cleveland Center
Fri 08:58:57 AM 40.9119 -77.9583 280° West 415 478 36,000  Level Cleveland Center
Fri 08:59:59 AM 40.9317 -78.1128 280° West 428 493 36,000  Level Cleveland Center
Fri 09:01:01 AM 40.9525 -78.2728 280° West 419 482 36,000  Level Cleveland Center
Fri 09:02:03 AM 40.9689 -78.4164 279° West 403 464 36,000  Level Cleveland Center
Fri 09:03:05 AM 40.9894 -78.5661 280° West 415 478 36,000  Level Cleveland Center
Fri 09:04:07 AM 41.0067 -78.7106 279° West 406 467 36,000  Level Cleveland Center
Fri 09:05:09 AM 41.0225 -78.8556 278° West 402 463 36,000  Level Cleveland Center
Fri 09:06:11 AM 41.0364 -78.9983 277° West 397 457 36,000  Level Cleveland Center
Fri 09:07:13 AM 41.0558 -79.1725 278° West 399 459 36,000  Level Cleveland Center
Fri 09:08:15 AM 41.0733 -79.3233 279° West 410 472 36,000  Level Cleveland Center
Fri 09:09:17 AM 41.0669 -79.4753 267° West 424 488 36,000  Level Cleveland Center
Fri 09:10:19 AM 41.0500 -79.6222 261° West 410 472 36,000  Level Cleveland Center
Fri 09:11:21 AM 41.0328 -79.7653 261° West 400 460 36,000  Level Cleveland Center
Fri 09:12:23 AM 41.0114 -79.9333 260° West 391 450 36,000  Level Cleveland Center
Fri 09:13:25 AM 40.9953 -80.0714 261° West 385 443 36,000  Level Cleveland Center
Fri 09:14:27 AM 40.9786 -80.2086 261° West 382 440 36,000  Level Cleveland Center
Fri 09:15:29 AM 40.9617 -80.3531 261° West 394 453 36,000  Level Cleveland Center
Fri 09:16:30 AM 40.9442 -80.5036 261° West 409 471 36,000  Level Cleveland Center
Fri 09:17:32 AM 40.9242 -80.6792 261° West 408 470 36,000  Level Cleveland Center
Fri 09:18:34 AM 40.9094 -80.8244 262° West 404 465 36,000  Level Cleveland Center
Fri 09:19:36 AM 40.9003 -80.9689 265° West 400 460 36,000  Level Cleveland Center
Fri 09:20:38 AM 40.9158 -81.1233 278° West 396 456 36,000  Level Cleveland Center
Fri 09:21:40 AM 40.9297 -81.2742 277° West 406 467 36,000  Level Cleveland Center
Fri 09:22:42 AM 40.9456 -81.4283 278° West 414 476 36,000  Level Cleveland Center
Fri 09:23:44 AM 40.9603 -81.5817 277° West 415 478 36,000  Level Cleveland Center
Fri 09:24:46 AM 40.9761 -81.7361 278° West 417 480 36,000  Level Cleveland Center
Fri 09:25:48 AM 40.9903 -81.8858 277° West 407 468 36,000  Level Cleveland Center
Fri 09:26:50 AM 41.0050 -82.0292 278° West 392 451 36,000  Level Cleveland Center
Fri 09:27:52 AM 41.0181 -82.1703 277° West 382 440 36,000  Level Cleveland Center
Fri 09:28:53 AM 41.0314 -82.3131 277° West 385 443 36,000  Level Cleveland Center
Fri 09:29:55 AM 41.0469 -82.4808 277° West 390 449 36,000  Level Cleveland Center
Fri 09:30:57 AM 41.0603 -82.6256 277° West 391 450 36,000  Level Cleveland Center
Fri 09:31:59 AM 41.0725 -82.7658 277° West 384 442 36,000  Level Cleveland Center
Fri 09:33:01 AM 41.0850 -82.8986 277° West 366 421 36,000  Level Cleveland Center
Fri 09:34:03 AM 41.0961 -83.0289 276° West 355 409 36,000  Level Cleveland Center
Fri 09:35:05 AM 41.1081 -83.1672 277° West 352 405 36,000  Level Cleveland Center
Fri 09:36:07 AM 41.1186 -83.2964 276° West 352 405 36,000  Level Cleveland Center
Fri 09:37:09 AM 41.1306 -83.4242 277° West 351 404 36,000  Level Cleveland Center
Fri 09:38:11 AM 41.1403 -83.5539 276° West 352 405 36,000  Level Cleveland Center
Fri 09:39:12 AM 41.1514 -83.6808 277° West 349 402 36,000  Level Cleveland Center
Fri 09:40:14 AM 41.1603 -83.8078 275° West 346 398 36,000  Level Cleveland Center
Fri 09:41:27 AM 41.1758 -83.9792 277° West 346 398 36,000  Level Chicago Center
Fri 09:42:29 AM 41.1850 -84.1042 276° West 343 395 36,000  Level Chicago Center
Fri 09:43:31 AM 41.1947 -84.2292 276° West 341 392 36,000  Level Chicago Center
Fri 09:44:33 AM 41.2044 -84.3536 276° West 340 391 36,000  Level Chicago Center
Fri 09:45:35 AM 41.2131 -84.4789 275° West 342 394 36,000  Level Chicago Center
Fri 09:46:37 AM 41.2225 -84.6028 276° West 338 389 36,000  Level Chicago Center
Fri 09:47:39 AM 41.2333 -84.7519 276° West 338 389 36,000  Level Chicago Center
Fri 09:48:42 AM 41.2428 -84.8775 276° West 340 391 36,000  Level Chicago Center
Fri 09:49:44 AM 41.2500 -85.0006 275° West 336 387 36,000  Level Chicago Center
Fri 09:50:46 AM 41.2586 -85.1231 275° West 333 383 36,000  Level Chicago Center
Fri 09:51:48 AM 41.2667 -85.2450 275° West 331 381 36,000  Level Chicago Center
Fri 09:52:50 AM 41.2753 -85.3653 275° West 328 377 36,000  Level Chicago Center
Fri 09:53:52 AM 41.2839 -85.5122 275° West 329 379 36,000  Level Chicago Center
Fri 09:54:54 AM 41.2922 -85.6358 275° West 333 383 36,000  Level Chicago Center
Fri 09:55:56 AM 41.2986 -85.7594 274° West 333 383 36,000  Level Chicago Center
Fri 09:56:58 AM 41.3072 -85.8819 275° West 333 383 36,000  Level Chicago Center
Fri 09:58:00 AM 41.3147 -86.0008 275° West 325 374 36,000  Level Chicago Center
Fri 09:59:03 AM 41.3217 -86.1175 275° West 318 366 36,000  Level Chicago Center
Fri 10:00:05 AM 41.3286 -86.2381 274° West 325 374 36,000  Level Chicago Center
Fri 10:01:07 AM 41.3378 -86.3850 275° West 330 380 36,000  Level Chicago Center
Fri 10:02:09 AM 41.3450 -86.5061 275° West 328 377 36,000 -290 Level Chicago Center
Fri 10:03:11 AM 41.3511 -86.6292 274° West 333 383 35,400 -2,177 Descending Chicago Center
Fri 10:04:13 AM 41.3594 -86.7769 274° West 356 410 31,500 -2,613 Descending Chicago Center
Fri 10:05:15 AM 41.3675 -86.9158 274° West 375 432 30,000 -871 Descending Chicago Center
Fri 10:06:17 AM 41.3736 -87.0378 274° West 334 384 29,700 -919 Descending Chicago Center
Fri 10:07:19 AM 41.3800 -87.1603 274° West 331 381 28,100 -816 Descending Chicago Center
Fri 10:08:22 AM 41.3856 -87.2772 274° West 319 367 28,000 -48 Descending Chicago Center
Fri 10:09:24 AM 41.3925 -87.4128 274° West 308 354 28,000  Level Chicago Center
Fri 10:10:26 AM 41.3986 -87.5272 274° West 310 357 28,000  Level Chicago Center
Fri 10:11:28 AM 41.4036 -87.6414 273° West 313 360 28,000  Level Chicago Center
Fri 10:12:30 AM 41.4078 -87.7469 273° West 317 365 28,000  Level Chicago Center
Fri 10:13:32 AM 41.4142 -87.8756 274° West 318 366 28,000  Level Chicago Center
Fri 10:14:34 AM 41.4203 -88.0097 274° West 323 372 28,000  Level Chicago Center
Fri 10:15:36 AM 41.4272 -88.1300 274° West 326 375 28,000  Level Chicago Center
Fri 10:16:38 AM 41.4300 -88.2447 272° West 323 372 28,000  Level Chicago Center
Fri 10:17:40 AM 41.4353 -88.3886 273° West 325 374 28,000  Level Chicago Center
Fri 10:18:43 AM 41.4403 -88.5056 273° West 321 369 28,000  Level Chicago Center
Fri 10:19:45 AM 41.4453 -88.6211 273° West 315 362 28,000  Level Chicago Center
Fri 10:20:47 AM 41.4492 -88.7372 273° West 314 361 28,000  Level Chicago Center
Fri 10:21:49 AM 41.4542 -88.8508 273° West 310 357 28,000  Level Chicago Center
Fri 10:22:51 AM 41.4583 -88.9875 272° West 308 354 28,000  Level Chicago Center
Fri 10:23:53 AM 41.4622 -89.1017 273° West 310 357 28,000  Level Chicago Center
Fri 10:24:55 AM 41.4672 -89.2222 273° West 309 356 28,000  Level Chicago Center
Fri 10:25:57 AM 41.4706 -89.3356 272° West 307 353 28,000  Level Chicago Center
Fri 10:26:59 AM 41.4711 -89.4497 270° West 307 353 28,000  Level Chicago Center
Fri 10:28:01 AM 41.4728 -89.5600 271° West 301 346 28,000  Level Chicago Center
Fri 10:29:03 AM 41.4733 -89.6722 270° West 302 348 28,000  Level Chicago Center
Fri 10:30:06 AM 41.4747 -89.7856 271° West 305 351 28,000  Level Chicago Center
Fri 10:31:08 AM 41.4756 -89.9272 270° West 319 367 28,000  Level Chicago Center
Fri 10:32:10 AM 41.4761 -90.0367 270° West 298 343 28,000  Level Chicago Center
Fri 10:33:12 AM 41.4775 -90.1375 271° West 277 319 28,000  Level Chicago Center
Fri 10:34:14 AM 41.4767 -90.2394 269° West 275 316 28,000  Level Chicago Center
Fri 10:35:16 AM 41.4781 -90.3483 271° West 291 335 28,000  Level Chicago Center
Fri 10:36:18 AM 41.4781 -90.4650 270° West 311 358 28,000  Level Chicago Center
Fri 10:37:20 AM 41.4789 -90.6056 270° West 317 365 28,000  Level Chicago Center
Fri 10:38:22 AM 41.4767 -90.7275 269° West 326 375 28,000  Level Chicago Center
Fri 10:39:24 AM 41.4767 -90.8417 270° West 313 360 28,000  Level Chicago Center
Fri 10:40:26 AM 41.4761 -90.9556 270° West 310 357 28,000  Level Chicago Center
Fri 10:41:29 AM 41.4761 -91.0675 270° West 305 351 28,000  Level Chicago Center
Fri 10:42:31 AM 41.4744 -91.2019 269° West 302 348 28,000  Level Chicago Center
Fri 10:43:33 AM 41.4747 -91.3128 270° West 300 345 28,000  Level Chicago Center
Fri 10:44:35 AM 41.4747 -91.4122 270° West 298 343 28,000 -97 Level Chicago Center
Fri 10:45:37 AM 41.4794 -91.5461 273° West 303 349 27,800 -823 Descending Chicago Center
Fri 10:46:39 AM 41.4811 -91.6583 271° West 304 350 26,300 -871 Descending Chicago Center
Fri 10:47:41 AM 41.4844 -91.7706 272° West 305 351 26,000 -145 Descending Chicago Center
Fri 10:48:43 AM 41.4867 -91.8644 272° West 263 303 26,000  Level Chicago Center
Fri 10:49:45 AM 41.4886 -91.9569 272° West 252 290 26,000  Level Chicago Center
Fri 10:50:47 AM 41.4911 -92.0706 272° West 255 293 26,000  Level Chicago Center
Fri 10:51:49 AM 41.4919 -92.1669 271° West 260 299 26,000  Level Chicago Center
Fri 10:52:52 AM 41.4942 -92.2731 272° West 278 320 26,000  Level Chicago Center
Fri 10:53:54 AM 41.4967 -92.3764 272° West 281 323 26,000  Level Chicago Center
Fri 10:54:56 AM 41.4983 -92.4817 271° West 287 330 26,000  Level Chicago Center
Fri 10:55:58 AM 41.5006 -92.6122 271° West 295 339 26,000  Level Chicago Center
Fri 10:57:00 AM 41.5019 -92.7286 271° West 312 359 26,000  Level Chicago Center
Fri 10:58:02 AM 41.5028 -92.8372 271° West 321 369 26,000  Level Chicago Center
Fri 10:59:17 AM 41.5061 -93.0097 272° West 331 381 26,000  Level Minneapolis Center
Fri 11:00:19 AM 41.5067 -93.1322 270° West 334 384 26,000  Level Minneapolis Center
Fri 11:01:21 AM 41.5086 -93.2586 271° West 340 391 26,000  Level Minneapolis Center
Fri 11:02:23 AM 41.5092 -93.3831 270° West 340 391 26,000  Level Minneapolis Center
Fri 11:03:25 AM 41.5114 -93.5356 271° West 345 397 26,000 -823 Level Minneapolis Center
Fri 11:04:27 AM 41.5133 -93.6658 271° West 350 403 24,300 -968 Descending Minneapolis Center
Fri 11:05:29 AM 41.5139 -93.8053 270° West 370 426 24,000 -339 Descending Minneapolis Center
Fri 11:06:31 AM 41.5150 -93.9444 271° West 377 434 23,600 -1,161 Descending Minneapolis Center
Fri 11:07:33 AM 41.5156 -94.0822 270° West 376 433 21,600 -2,064 Descending Minneapolis Center
Fri 11:08:36 AM 41.5142 -94.2469 269° West 387 445 19,300 -1,872 Descending Minneapolis Center
Fri 11:09:38 AM 41.5139 -94.3881 270° West 381 438 17,700 -1,500 Descending Minneapolis Center
Fri 11:10:40 AM 41.5142 -94.5253 270° West 372 428 16,200 -871 Descending Minneapolis Center
Fri 11:11:42 AM 41.5136 -94.6614 270° West 368 423 15,900 -145 Descending Minneapolis Center
Fri 11:12:44 AM 41.5133 -94.8228 270° West 364 419 15,900 148 Level Minneapolis Center
Fri 11:13:03 AM 41.5272 -94.8786 288° West 368 423 16,100 97 Climbing Minneapolis Center
Fri 11:13:46 AM 41.5133 -94.9597 257° West 369 425 16,000 -433 Descending Minneapolis Center
Fri 11:14:40 AM 41.5244 -95.0964 276° West 357 411 15,400 -677 Descending Minneapolis Center
Fri 11:14:48 AM 41.5144 -95.0900 154° Southeast 360 414 15,300 -1,970 Descending Minneapolis Center
Fri 11:15:47 AM 41.5081 -95.2181 266° West 308 354 13,200 -1,935 Descending Minneapolis Center
Fri 11:15:50 AM 41.5017 -95.2042 122° Southeast 334 384 13,300 -1,967 Climbing Minneapolis Center
Fri 11:16:48 AM 41.4644 -95.3100 245° Southwest 300 345 11,200 -2,032 Descending Minneapolis Center
Fri 11:16:52 AM 41.4597 -95.2994 121° Southeast 321 369 11,200 -1,672 Level Minneapolis Center
Fri 11:17:49 AM 41.3822 -95.3619 211° Southwest 301 346 9,500 -1,452 Descending Minneapolis Center
Fri 11:17:54 AM 41.3819 -95.3522 92° East 317 365 9,700 -1,714 Climbing Minneapolis Center
Fri 11:18:45 AM 41.3222 -95.4028 212° Southwest 287 330 7,900 -2,095 Descending Minneapolis Center
Fri 11:18:57 AM 41.2986 -95.4097 192° South 297 342 7,500 -1,932 Descending Minneapolis Center
Fri 11:19:44 AM 41.2556 -95.4664 225° Southwest 269 310 6,000 -1,839 Descending Minneapolis Center
Fri 11:19:59 AM 41.2403 -95.4733 199° South 280 322 5,600 -984 Descending Minneapolis Center
Fri 11:20:45 AM 41.1969 -95.5264 223° Southwest 267 307 5,000 -774 Descending Minneapolis Center
Fri 11:21:01 AM 41.1822 -95.5336 200° South 272 313 4,800 -982 Descending Minneapolis Center
Fri 11:21:40 AM 41.1500 -95.5736 223° Southwest 224 258 4,100 -774 Descending Minneapolis Center
Fri 11:22:03 AM 41.1311 -95.5869 208° Southwest 254 292 4,000  Descending Minneapolis Center
Fri 11:22:41 AM 41.0992 -95.6239 221° Southwest 229 264 4,100 65 Climbing Minneapolis Center
Fri 11:23:35 AM 41.0781 -95.6847 245° Southwest 212 244 4,100 -70 Level Minneapolis Center
Fri 11:24:07 AM 41.0922 -95.6981 325° Northwest 218 251 4,000  Descending Minneapolis Center
Fri 11:24:36 AM 41.1225 -95.7236 328° Northwest 189 217 4,100  Climbing Minneapolis Center
Fri 11:25:10 AM 41.1372 -95.7375 325° Northwest 201 231 4,000 -98 Descending Minneapolis Center
Fri 11:25:37 AM 41.1675 -95.7681 323° Northwest 196 226 4,000 -290 Level Minneapolis Center
Fri 11:26:12 AM 41.1903 -95.7883 326° Northwest 197 227 3,700 -787 Descending Minneapolis Center
Fri 11:26:38 AM 41.2100 -95.8075 324° Northwest 192 221 3,200 -968 Descending Minneapolis Center
Fri 11:27:14 AM 41.2286 -95.8256 324° Northwest 182 209 2,700 -885 Descending Minneapolis Center
Fri 11:27:39 AM 41.2436 -95.8422 320° Northwest 128 147 2,300 -774 Descending Minneapolis Center
Fri 11:28:16 AM 41.2592 -95.8539 331° Northwest 150 173 1,900 -800 Descending Minneapolis Center
Fri 11:28:39 AM 41.2747 -95.8719 319° Northwest 135 155 1,500 -774 Descending Minneapolis Center
Fri 11:29:18 AM 41.2903 -95.8839 330° Northwest 140 161 1,100 -615 Descending Minneapolis Center

Login

Don't have an account? Register now (free) for customized features, flight alerts, and more!